Terminal Aerodrome Forecast
Issued by NWS

Home | Current Version | Previous Version | Graphics & Text | Print | Product List | Glossary On
Versions: 1 2 3 4 5 6 7 8 9 10 11 12 13 14
000
FTUS45 KGGW 191700
TAFSDY
TAF
KSDY 191720Z 1918/2018 20013KT P6SM SCT160
     FM200000 25012KT P6SM SCT190
     FM200300 25008KT P6SM SCT150
     FM201500 27013KT P6SM FEW150
      AMD LTD TO CLD VIS AND WIND=

USA.gov is the U.S. government's official web portal to all federal, state and local government web resources and services.